sensor_id;sensor_type;location;lat;lon;timestamp;P1;durP1;ratioP1;P2;durP2;ratioP2
64615;SDS011;51027;42.162;24.754;2024-01-15T00:02:16;30.02;;;14.05;;
64615;SDS011;51027;42.162;24.754;2024-01-15T00:04:42;31.73;;;14.32;;
64615;SDS011;51027;42.162;24.754;2024-01-15T00:07:08;29.15;;;14.23;;
64615;SDS011;51027;42.162;24.754;2024-01-15T00:09:34;32.67;;;15.38;;
64615;SDS011;51027;42.162;24.754;2024-01-15T00:12:01;36.25;;;15.15;;
64615;SDS011;51027;42.162;24.754;2024-01-15T00:14:27;32.90;;;14.85;;
64615;SDS011;51027;42.162;24.754;2024-01-15T00:16:53;38.58;;;16.70;;
64615;SDS011;51027;42.162;24.754;2024-01-15T00:19:23;30.42;;;14.32;;
64615;SDS011;51027;42.162;24.754;2024-01-15T00:21:49;34.00;;;15.23;;
64615;SDS011;51027;42.162;24.754;2024-01-15T00:24:14;34.75;;;15.65;;
64615;SDS011;51027;42.162;24.754;2024-01-15T00:26:40;34.83;;;15.00;;
64615;SDS011;51027;42.162;24.754;2024-01-15T00:29:09;30.92;;;15.07;;
64615;SDS011;51027;42.162;24.754;2024-01-15T00:31:34;32.93;;;15.17;;
64615;SDS011;51027;42.162;24.754;2024-01-15T00:34:00;40.30;;;16.75;;
64615;SDS011;51027;42.162;24.754;2024-01-15T00:36:26;32.45;;;15.52;;
64615;SDS011;51027;42.162;24.754;2024-01-15T00:38:52;37.05;;;16.10;;
64615;SDS011;51027;42.162;24.754;2024-01-15T00:41:18;38.63;;;18.08;;
64615;SDS011;51027;42.162;24.754;2024-01-15T00:43:44;35.15;;;15.77;;
64615;SDS011;51027;42.162;24.754;2024-01-15T00:46:10;35.80;;;16.25;;
64615;SDS011;51027;42.162;24.754;2024-01-15T00:48:36;34.45;;;14.52;;
64615;SDS011;51027;42.162;24.754;2024-01-15T00:51:02;30.50;;;16.10;;
64615;SDS011;51027;42.162;24.754;2024-01-15T00:53:28;39.88;;;17.80;;
64615;SDS011;51027;42.162;24.754;2024-01-15T00:55:54;36.17;;;17.30;;
64615;SDS011;51027;42.162;24.754;2024-01-15T00:58:19;41.45;;;16.55;;
64615;SDS011;51027;42.162;24.754;2024-01-15T01:00:45;39.85;;;18.27;;
64615;SDS011;51027;42.162;24.754;2024-01-15T01:03:10;37.38;;;16.40;;
64615;SDS011;51027;42.162;24.754;2024-01-15T01:05:36;41.10;;;17.27;;
64615;SDS011;51027;42.162;24.754;2024-01-15T01:08:02;36.53;;;16.45;;
64615;SDS011;51027;42.162;24.754;2024-01-15T01:10:28;39.15;;;17.63;;
64615;SDS011;51027;42.162;24.754;2024-01-15T01:12:54;35.47;;;16.48;;
64615;SDS011;51027;42.162;24.754;2024-01-15T01:15:19;36.80;;;17.52;;
64615;SDS011;51027;42.162;24.754;2024-01-15T01:17:45;37.25;;;18.13;;
64615;SDS011;51027;42.162;24.754;2024-01-15T01:20:11;38.33;;;15.10;;
64615;SDS011;51027;42.162;24.754;2024-01-15T01:22:37;39.80;;;16.33;;
64615;SDS011;51027;42.162;24.754;2024-01-15T01:25:02;33.53;;;14.25;;
64615;SDS011;51027;42.162;24.754;2024-01-15T01:27:28;34.03;;;15.45;;
64615;SDS011;51027;42.162;24.754;2024-01-15T01:29:54;38.53;;;16.38;;
64615;SDS011;51027;42.162;24.754;2024-01-15T01:32:19;35.72;;;15.95;;
64615;SDS011;51027;42.162;24.754;2024-01-15T01:34:45;35.17;;;16.35;;
64615;SDS011;51027;42.162;24.754;2024-01-15T01:37:11;36.83;;;16.80;;
64615;SDS011;51027;42.162;24.754;2024-01-15T01:39:43;34.00;;;16.87;;
64615;SDS011;51027;42.162;24.754;2024-01-15T01:42:09;39.03;;;15.97;;
64615;SDS011;51027;42.162;24.754;2024-01-15T01:44:34;33.63;;;14.60;;
64615;SDS011;51027;42.162;24.754;2024-01-15T01:47:00;34.20;;;14.45;;
64615;SDS011;51027;42.162;24.754;2024-01-15T01:49:26;30.52;;;14.57;;
64615;SDS011;51027;42.162;24.754;2024-01-15T01:51:53;32.90;;;15.10;;
64615;SDS011;51027;42.162;24.754;2024-01-15T01:54:22;32.95;;;15.43;;
64615;SDS011;51027;42.162;24.754;2024-01-15T01:56:48;31.95;;;14.80;;
64615;SDS011;51027;42.162;24.754;2024-01-15T01:59:14;34.53;;;16.60;;
64615;SDS011;51027;42.162;24.754;2024-01-15T02:01:40;33.40;;;13.93;;
64615;SDS011;51027;42.162;24.754;2024-01-15T02:04:06;36.88;;;15.70;;
64615;SDS011;51027;42.162;24.754;2024-01-15T02:06:33;33.58;;;13.75;;
64615;SDS011;51027;42.162;24.754;2024-01-15T02:08:59;36.60;;;15.23;;
64615;SDS011;51027;42.162;24.754;2024-01-15T02:11:25;28.52;;;14.18;;
64615;SDS011;51027;42.162;24.754;2024-01-15T02:13:50;31.38;;;13.88;;
64615;SDS011;51027;42.162;24.754;2024-01-15T02:16:16;31.25;;;14.13;;
64615;SDS011;51027;42.162;24.754;2024-01-15T02:18:42;33.60;;;14.38;;
64615;SDS011;51027;42.162;24.754;2024-01-15T02:21:08;31.85;;;14.90;;
64615;SDS011;51027;42.162;24.754;2024-01-15T02:23:34;30.73;;;13.57;;
64615;SDS011;51027;42.162;24.754;2024-01-15T02:26:00;34.83;;;14.50;;
64615;SDS011;51027;42.162;24.754;2024-01-15T02:28:26;30.77;;;13.73;;
64615;SDS011;51027;42.162;24.754;2024-01-15T02:30:52;36.05;;;13.70;;
64615;SDS011;51027;42.162;24.754;2024-01-15T02:33:17;33.88;;;14.95;;
64615;SDS011;51027;42.162;24.754;2024-01-15T02:35:43;33.60;;;15.40;;
64615;SDS011;51027;42.162;24.754;2024-01-15T02:38:08;35.70;;;15.05;;
64615;SDS011;51027;42.162;24.754;2024-01-15T02:40:34;32.60;;;16.25;;
64615;SDS011;51027;42.162;24.754;2024-01-15T02:43:00;29.83;;;12.85;;
64615;SDS011;51027;42.162;24.754;2024-01-15T02:45:26;28.10;;;14.05;;
64615;SDS011;51027;42.162;24.754;2024-01-15T02:47:52;31.10;;;13.38;;
64615;SDS011;51027;42.162;24.754;2024-01-15T02:50:17;37.15;;;16.23;;
64615;SDS011;51027;42.162;24.754;2024-01-15T02:52:43;34.88;;;14.65;;
64615;SDS011;51027;42.162;24.754;2024-01-15T02:55:09;32.97;;;14.18;;
64615;SDS011;51027;42.162;24.754;2024-01-15T02:57:34;36.30;;;15.48;;
64615;SDS011;51027;42.162;24.754;2024-01-15T03:00:00;31.80;;;14.65;;
64615;SDS011;51027;42.162;24.754;2024-01-15T03:02:25;36.67;;;14.52;;
64615;SDS011;51027;42.162;24.754;2024-01-15T03:04:51;35.25;;;16.25;;
64615;SDS011;51027;42.162;24.754;2024-01-15T03:07:17;36.15;;;16.60;;
64615;SDS011;51027;42.162;24.754;2024-01-15T03:09:42;39.10;;;16.58;;
64615;SDS011;51027;42.162;24.754;2024-01-15T03:12:08;33.78;;;15.52;;
64615;SDS011;51027;42.162;24.754;2024-01-15T03:14:33;33.70;;;15.85;;
64615;SDS011;51027;42.162;24.754;2024-01-15T03:17:00;34.15;;;16.55;;
64615;SDS011;51027;42.162;24.754;2024-01-15T03:19:26;37.08;;;17.35;;
64615;SDS011;51027;42.162;24.754;2024-01-15T03:21:52;36.58;;;16.17;;
64615;SDS011;51027;42.162;24.754;2024-01-15T03:24:18;33.38;;;16.10;;
64615;SDS011;51027;42.162;24.754;2024-01-15T03:26:43;38.85;;;17.02;;
64615;SDS011;51027;42.162;24.754;2024-01-15T03:29:09;37.38;;;15.57;;
64615;SDS011;51027;42.162;24.754;2024-01-15T03:31:34;34.20;;;17.05;;
64615;SDS011;51027;42.162;24.754;2024-01-15T03:34:00;37.50;;;16.50;;
64615;SDS011;51027;42.162;24.754;2024-01-15T03:36:25;33.15;;;16.80;;
64615;SDS011;51027;42.162;24.754;2024-01-15T03:38:51;41.15;;;18.15;;
64615;SDS011;51027;42.162;24.754;2024-01-15T03:41:16;44.58;;;18.25;;
64615;SDS011;51027;42.162;24.754;2024-01-15T03:43:42;36.00;;;16.00;;
64615;SDS011;51027;42.162;24.754;2024-01-15T03:46:07;40.67;;;18.67;;
64615;SDS011;51027;42.162;24.754;2024-01-15T03:48:33;34.63;;;15.75;;
64615;SDS011;51027;42.162;24.754;2024-01-15T03:50:58;33.92;;;14.65;;
64615;SDS011;51027;42.162;24.754;2024-01-15T03:53:24;29.55;;;13.27;;
64615;SDS011;51027;42.162;24.754;2024-01-15T03:55:49;35.72;;;15.30;;
64615;SDS011;51027;42.162;24.754;2024-01-15T03:58:15;33.03;;;15.02;;
64615;SDS011;51027;42.162;24.754;2024-01-15T04:00:41;29.08;;;13.50;;
64615;SDS011;51027;42.162;24.754;2024-01-15T04:03:07;35.03;;;17.10;;
64615;SDS011;51027;42.162;24.754;2024-01-15T04:05:32;57.10;;;26.90;;
64615;SDS011;51027;42.162;24.754;2024-01-15T04:07:58;31.95;;;14.43;;
64615;SDS011;51027;42.162;24.754;2024-01-15T04:10:23;34.55;;;15.90;;
64615;SDS011;51027;42.162;24.754;2024-01-15T04:12:49;30.25;;;14.00;;
64615;SDS011;51027;42.162;24.754;2024-01-15T04:15:14;34.38;;;14.35;;
64615;SDS011;51027;42.162;24.754;2024-01-15T04:17:40;30.23;;;12.98;;
64615;SDS011;51027;42.162;24.754;2024-01-15T04:20:06;35.30;;;16.83;;
64615;SDS011;51027;42.162;24.754;2024-01-15T04:22:33;38.50;;;17.38;;
64615;SDS011;51027;42.162;24.754;2024-01-15T04:24:59;46.85;;;19.73;;
64615;SDS011;51027;42.162;24.754;2024-01-15T04:27:24;38.30;;;19.02;;
64615;SDS011;51027;42.162;24.754;2024-01-15T04:29:50;42.22;;;18.65;;
64615;SDS011;51027;42.162;24.754;2024-01-15T04:32:15;69.43;;;26.70;;
64615;SDS011;51027;42.162;24.754;2024-01-15T04:34:41;60.53;;;24.98;;
64615;SDS011;51027;42.162;24.754;2024-01-15T04:37:06;51.80;;;21.00;;
64615;SDS011;51027;42.162;24.754;2024-01-15T04:39:32;50.63;;;19.73;;
64615;SDS011;51027;42.162;24.754;2024-01-15T04:41:57;39.55;;;19.33;;
64615;SDS011;51027;42.162;24.754;2024-01-15T04:44:23;39.90;;;16.10;;
64615;SDS011;51027;42.162;24.754;2024-01-15T04:46:48;37.95;;;16.73;;
64615;SDS011;51027;42.162;24.754;2024-01-15T04:49:14;39.50;;;16.33;;
64615;SDS011;51027;42.162;24.754;2024-01-15T04:51:39;32.85;;;16.17;;
64615;SDS011;51027;42.162;24.754;2024-01-15T04:54:05;40.53;;;16.98;;
64615;SDS011;51027;42.162;24.754;2024-01-15T04:56:30;41.42;;;16.77;;
64615;SDS011;51027;42.162;24.754;2024-01-15T04:58:56;39.25;;;16.50;;
64615;SDS011;51027;42.162;24.754;2024-01-15T05:01:22;34.75;;;15.63;;
64615;SDS011;51027;42.162;24.754;2024-01-15T05:03:47;33.63;;;17.08;;
64615;SDS011;51027;42.162;24.754;2024-01-15T05:06:13;37.72;;;17.13;;
64615;SDS011;51027;42.162;24.754;2024-01-15T05:08:39;37.83;;;17.67;;
64615;SDS011;51027;42.162;24.754;2024-01-15T05:11:04;44.20;;;20.58;;
64615;SDS011;51027;42.162;24.754;2024-01-15T05:13:30;40.30;;;20.08;;
64615;SDS011;51027;42.162;24.754;2024-01-15T05:15:55;39.65;;;17.83;;
64615;SDS011;51027;42.162;24.754;2024-01-15T05:18:21;43.75;;;20.20;;
64615;SDS011;51027;42.162;24.754;2024-01-15T05:20:47;37.17;;;19.70;;
64615;SDS011;51027;42.162;24.754;2024-01-15T05:23:12;44.55;;;20.63;;
64615;SDS011;51027;42.162;24.754;2024-01-15T05:25:38;42.33;;;24.13;;
64615;SDS011;51027;42.162;24.754;2024-01-15T05:28:04;43.38;;;21.52;;
64615;SDS011;51027;42.162;24.754;2024-01-15T05:30:30;44.97;;;22.05;;
64615;SDS011;51027;42.162;24.754;2024-01-15T05:32:56;46.03;;;24.85;;
64615;SDS011;51027;42.162;24.754;2024-01-15T05:35:22;51.08;;;24.52;;
64615;SDS011;51027;42.162;24.754;2024-01-15T05:37:48;48.40;;;23.42;;
64615;SDS011;51027;42.162;24.754;2024-01-15T05:40:13;48.58;;;20.17;;
64615;SDS011;51027;42.162;24.754;2024-01-15T05:42:39;43.90;;;21.52;;
64615;SDS011;51027;42.162;24.754;2024-01-15T05:45:05;42.65;;;21.25;;
64615;SDS011;51027;42.162;24.754;2024-01-15T05:47:31;41.20;;;18.38;;
64615;SDS011;51027;42.162;24.754;2024-01-15T05:49:57;40.85;;;19.10;;
64615;SDS011;51027;42.162;24.754;2024-01-15T05:52:23;39.40;;;17.55;;
64615;SDS011;51027;42.162;24.754;2024-01-15T05:54:49;33.85;;;16.02;;
64615;SDS011;51027;42.162;24.754;2024-01-15T05:57:15;34.90;;;18.45;;
64615;SDS011;51027;42.162;24.754;2024-01-15T05:59:41;46.40;;;23.10;;
64615;SDS011;51027;42.162;24.754;2024-01-15T06:02:06;44.92;;;21.85;;
64615;SDS011;51027;42.162;24.754;2024-01-15T06:04:32;44.20;;;23.00;;
64615;SDS011;51027;42.162;24.754;2024-01-15T06:06:57;40.25;;;19.85;;
64615;SDS011;51027;42.162;24.754;2024-01-15T06:09:23;37.30;;;21.30;;
64615;SDS011;51027;42.162;24.754;2024-01-15T06:11:48;44.42;;;22.45;;
64615;SDS011;51027;42.162;24.754;2024-01-15T06:14:14;46.00;;;23.15;;
64615;SDS011;51027;42.162;24.754;2024-01-15T06:16:39;33.25;;;19.00;;
64615;SDS011;51027;42.162;24.754;2024-01-15T06:19:05;44.90;;;21.10;;
64615;SDS011;51027;42.162;24.754;2024-01-15T06:21:30;44.90;;;22.73;;
64615;SDS011;51027;42.162;24.754;2024-01-15T06:23:56;39.92;;;17.55;;
64615;SDS011;51027;42.162;24.754;2024-01-15T06:26:22;33.65;;;17.00;;
64615;SDS011;51027;42.162;24.754;2024-01-15T06:28:48;35.55;;;16.08;;
64615;SDS011;51027;42.162;24.754;2024-01-15T06:31:13;48.97;;;21.35;;
64615;SDS011;51027;42.162;24.754;2024-01-15T06:33:39;40.75;;;18.42;;
64615;SDS011;51027;42.162;24.754;2024-01-15T06:36:04;40.20;;;18.00;;
64615;SDS011;51027;42.162;24.754;2024-01-15T06:38:30;37.67;;;20.73;;
64615;SDS011;51027;42.162;24.754;2024-01-15T06:40:56;30.58;;;13.35;;
64615;SDS011;51027;42.162;24.754;2024-01-15T06:43:21;39.75;;;19.27;;
64615;SDS011;51027;42.162;24.754;2024-01-15T06:45:47;36.20;;;19.45;;
64615;SDS011;51027;42.162;24.754;2024-01-15T06:48:12;41.38;;;19.23;;
64615;SDS011;51027;42.162;24.754;2024-01-15T06:50:44;40.60;;;18.77;;
64615;SDS011;51027;42.162;24.754;2024-01-15T06:53:10;37.58;;;17.05;;
64615;SDS011;51027;42.162;24.754;2024-01-15T06:55:37;35.13;;;18.02;;
64615;SDS011;51027;42.162;24.754;2024-01-15T06:58:04;38.10;;;17.70;;
64615;SDS011;51027;42.162;24.754;2024-01-15T07:00:30;38.95;;;18.20;;
64615;SDS011;51027;42.162;24.754;2024-01-15T07:02:56;46.97;;;22.42;;
64615;SDS011;51027;42.162;24.754;2024-01-15T07:05:22;48.42;;;24.25;;
64615;SDS011;51027;42.162;24.754;2024-01-15T07:07:47;47.08;;;23.35;;
64615;SDS011;51027;42.162;24.754;2024-01-15T07:10:13;51.25;;;25.83;;
64615;SDS011;51027;42.162;24.754;2024-01-15T07:12:39;43.67;;;24.95;;
64615;SDS011;51027;42.162;24.754;2024-01-15T07:15:07;42.53;;;22.15;;
64615;SDS011;51027;42.162;24.754;2024-01-15T07:17:33;42.05;;;22.45;;
64615;SDS011;51027;42.162;24.754;2024-01-15T07:19:59;41.65;;;22.77;;
64615;SDS011;51027;42.162;24.754;2024-01-15T07:22:24;46.17;;;22.10;;
64615;SDS011;51027;42.162;24.754;2024-01-15T07:24:50;42.03;;;19.00;;
64615;SDS011;51027;42.162;24.754;2024-01-15T07:27:15;34.63;;;17.33;;
64615;SDS011;51027;42.162;24.754;2024-01-15T07:29:41;33.17;;;14.73;;
64615;SDS011;51027;42.162;24.754;2024-01-15T07:32:08;43.15;;;18.60;;
64615;SDS011;51027;42.162;24.754;2024-01-15T07:34:33;41.30;;;18.27;;
64615;SDS011;51027;42.162;24.754;2024-01-15T07:36:59;39.97;;;18.65;;
64615;SDS011;51027;42.162;24.754;2024-01-15T07:39:24;35.67;;;18.08;;
64615;SDS011;51027;42.162;24.754;2024-01-15T07:41:50;34.92;;;17.35;;
64615;SDS011;51027;42.162;24.754;2024-01-15T07:44:17;47.92;;;20.73;;
64615;SDS011;51027;42.162;24.754;2024-01-15T07:46:48;38.85;;;17.23;;
64615;SDS011;51027;42.162;24.754;2024-01-15T07:49:13;41.78;;;17.35;;
64615;SDS011;51027;42.162;24.754;2024-01-15T07:51:39;42.53;;;19.13;;
64615;SDS011;51027;42.162;24.754;2024-01-15T07:54:08;18.77;;;8.45;;
64615;SDS011;51027;42.162;24.754;2024-01-15T07:56:34;24.85;;;10.45;;
64615;SDS011;51027;42.162;24.754;2024-01-15T07:59:17;41.97;;;19.23;;
64615;SDS011;51027;42.162;24.754;2024-01-15T08:01:43;40.60;;;18.63;;
64615;SDS011;51027;42.162;24.754;2024-01-15T08:04:08;39.35;;;17.88;;
64615;SDS011;51027;42.162;24.754;2024-01-15T08:06:34;39.70;;;17.27;;
64615;SDS011;51027;42.162;24.754;2024-01-15T08:09:00;38.20;;;17.33;;
64615;SDS011;51027;42.162;24.754;2024-01-15T08:11:25;35.70;;;18.27;;
64615;SDS011;51027;42.162;24.754;2024-01-15T08:13:51;46.17;;;21.75;;
64615;SDS011;51027;42.162;24.754;2024-01-15T08:16:17;43.85;;;20.67;;
64615;SDS011;51027;42.162;24.754;2024-01-15T08:18:42;40.80;;;19.77;;
64615;SDS011;51027;42.162;24.754;2024-01-15T08:21:09;45.72;;;22.80;;
64615;SDS011;51027;42.162;24.754;2024-01-15T08:23:34;39.78;;;19.85;;
64615;SDS011;51027;42.162;24.754;2024-01-15T08:26:00;41.38;;;22.40;;
64615;SDS011;51027;42.162;24.754;2024-01-15T08:28:25;40.05;;;18.02;;
64615;SDS011;51027;42.162;24.754;2024-01-15T08:30:51;40.53;;;19.10;;
64615;SDS011;51027;42.162;24.754;2024-01-15T08:33:16;37.22;;;19.20;;
64615;SDS011;51027;42.162;24.754;2024-01-15T08:35:42;40.38;;;19.23;;
64615;SDS011;51027;42.162;24.754;2024-01-15T08:38:07;37.95;;;18.95;;
64615;SDS011;51027;42.162;24.754;2024-01-15T08:40:32;36.63;;;17.20;;
64615;SDS011;51027;42.162;24.754;2024-01-15T08:42:58;36.90;;;17.20;;
64615;SDS011;51027;42.162;24.754;2024-01-15T08:45:23;27.42;;;11.50;;
64615;SDS011;51027;42.162;24.754;2024-01-15T08:47:49;31.70;;;16.05;;
64615;SDS011;51027;42.162;24.754;2024-01-15T08:50:15;35.17;;;16.92;;
64615;SDS011;51027;42.162;24.754;2024-01-15T08:52:40;39.83;;;17.02;;
64615;SDS011;51027;42.162;24.754;2024-01-15T08:55:06;35.20;;;15.30;;
64615;SDS011;51027;42.162;24.754;2024-01-15T08:57:32;39.97;;;17.60;;
64615;SDS011;51027;42.162;24.754;2024-01-15T08:59:57;33.42;;;17.20;;
64615;SDS011;51027;42.162;24.754;2024-01-15T09:02:24;35.40;;;16.85;;
64615;SDS011;51027;42.162;24.754;2024-01-15T09:04:50;32.60;;;15.55;;
64615;SDS011;51027;42.162;24.754;2024-01-15T09:07:15;33.85;;;16.67;;
64615;SDS011;51027;42.162;24.754;2024-01-15T09:09:40;40.60;;;19.45;;
64615;SDS011;51027;42.162;24.754;2024-01-15T09:12:07;40.45;;;18.25;;
64615;SDS011;51027;42.162;24.754;2024-01-15T09:14:33;42.25;;;20.08;;
64615;SDS011;51027;42.162;24.754;2024-01-15T09:16:59;33.47;;;16.27;;
64615;SDS011;51027;42.162;24.754;2024-01-15T09:19:24;42.97;;;20.80;;
64615;SDS011;51027;42.162;24.754;2024-01-15T09:21:50;35.47;;;16.45;;
64615;SDS011;51027;42.162;24.754;2024-01-15T09:24:15;37.50;;;18.08;;
64615;SDS011;51027;42.162;24.754;2024-01-15T09:26:41;38.67;;;19.55;;
64615;SDS011;51027;42.162;24.754;2024-01-15T09:29:06;44.30;;;22.98;;
64615;SDS011;51027;42.162;24.754;2024-01-15T09:31:32;38.80;;;18.17;;
64615;SDS011;51027;42.162;24.754;2024-01-15T09:33:58;43.33;;;20.80;;
64615;SDS011;51027;42.162;24.754;2024-01-15T09:36:25;37.25;;;17.92;;
64615;SDS011;51027;42.162;24.754;2024-01-15T09:38:50;39.08;;;20.33;;
64615;SDS011;51027;42.162;24.754;2024-01-15T09:41:16;41.17;;;20.10;;
64615;SDS011;51027;42.162;24.754;2024-01-15T09:43:42;37.05;;;17.60;;
64615;SDS011;51027;42.162;24.754;2024-01-15T09:46:08;36.65;;;15.70;;
64615;SDS011;51027;42.162;24.754;2024-01-15T09:48:33;43.67;;;21.50;;
64615;SDS011;51027;42.162;24.754;2024-01-15T09:51:01;49.58;;;21.70;;
64615;SDS011;51027;42.162;24.754;2024-01-15T09:53:27;42.20;;;23.17;;
64615;SDS011;51027;42.162;24.754;2024-01-15T09:55:52;46.65;;;23.23;;
64615;SDS011;51027;42.162;24.754;2024-01-15T09:58:18;52.17;;;25.08;;
64615;SDS011;51027;42.162;24.754;2024-01-15T10:00:45;44.65;;;22.27;;
64615;SDS011;51027;42.162;24.754;2024-01-15T10:03:15;39.80;;;21.17;;
64615;SDS011;51027;42.162;24.754;2024-01-15T10:05:40;41.38;;;19.50;;
64615;SDS011;51027;42.162;24.754;2024-01-15T10:08:06;40.80;;;21.70;;
64615;SDS011;51027;42.162;24.754;2024-01-15T10:10:31;42.53;;;18.65;;
64615;SDS011;51027;42.162;24.754;2024-01-15T10:12:58;33.28;;;16.90;;
64615;SDS011;51027;42.162;24.754;2024-01-15T10:15:27;37.67;;;17.38;;
64615;SDS011;51027;42.162;24.754;2024-01-15T10:17:54;38.90;;;20.05;;
64615;SDS011;51027;42.162;24.754;2024-01-15T10:20:19;36.22;;;16.77;;
64615;SDS011;51027;42.162;24.754;2024-01-15T10:22:47;43.35;;;19.58;;
64615;SDS011;51027;42.162;24.754;2024-01-15T10:25:13;38.67;;;18.85;;
64615;SDS011;51027;42.162;24.754;2024-01-15T10:27:39;42.22;;;20.10;;
64615;SDS011;51027;42.162;24.754;2024-01-15T10:30:07;38.83;;;18.55;;
64615;SDS011;51027;42.162;24.754;2024-01-15T10:32:33;37.95;;;19.35;;
64615;SDS011;51027;42.162;24.754;2024-01-15T10:34:58;34.72;;;16.58;;
64615;SDS011;51027;42.162;24.754;2024-01-15T10:37:24;37.10;;;18.80;;
64615;SDS011;51027;42.162;24.754;2024-01-15T10:39:50;39.33;;;18.92;;
64615;SDS011;51027;42.162;24.754;2024-01-15T10:42:16;36.75;;;19.85;;
64615;SDS011;51027;42.162;24.754;2024-01-15T10:44:43;39.35;;;19.88;;
64615;SDS011;51027;42.162;24.754;2024-01-15T10:47:11;36.35;;;19.67;;
64615;SDS011;51027;42.162;24.754;2024-01-15T10:49:37;42.20;;;21.52;;
64615;SDS011;51027;42.162;24.754;2024-01-15T10:52:03;35.40;;;19.63;;
64615;SDS011;51027;42.162;24.754;2024-01-15T10:54:29;38.63;;;21.05;;
64615;SDS011;51027;42.162;24.754;2024-01-15T10:56:58;38.97;;;19.80;;
64615;SDS011;51027;42.162;24.754;2024-01-15T10:59:23;39.95;;;18.88;;
64615;SDS011;51027;42.162;24.754;2024-01-15T11:01:49;39.63;;;19.38;;
64615;SDS011;51027;42.162;24.754;2024-01-15T11:04:19;36.67;;;19.85;;
64615;SDS011;51027;42.162;24.754;2024-01-15T11:06:47;38.20;;;19.65;;
64615;SDS011;51027;42.162;24.754;2024-01-15T11:09:15;44.08;;;21.98;;
64615;SDS011;51027;42.162;24.754;2024-01-15T11:11:46;41.53;;;20.98;;
64615;SDS011;51027;42.162;24.754;2024-01-15T11:14:45;38.20;;;20.98;;
64615;SDS011;51027;42.162;24.754;2024-01-15T11:17:10;36.88;;;18.23;;
64615;SDS011;51027;42.162;24.754;2024-01-15T11:22:10;38.25;;;19.38;;
64615;SDS011;51027;42.162;24.754;2024-01-15T11:24:52;39.90;;;20.13;;
64615;SDS011;51027;42.162;24.754;2024-01-15T11:27:17;45.15;;;22.15;;
64615;SDS011;51027;42.162;24.754;2024-01-15T11:30:10;36.38;;;18.73;;
64615;SDS011;51027;42.162;24.754;2024-01-15T11:32:37;36.42;;;20.52;;
64615;SDS011;51027;42.162;24.754;2024-01-15T11:35:06;38.22;;;20.33;;
64615;SDS011;51027;42.162;24.754;2024-01-15T11:40:20;37.53;;;20.35;;
64615;SDS011;51027;42.162;24.754;2024-01-15T11:42:46;48.72;;;20.27;;
64615;SDS011;51027;42.162;24.754;2024-01-15T11:45:13;40.00;;;20.83;;
64615;SDS011;51027;42.162;24.754;2024-01-15T11:47:53;46.03;;;23.50;;
64615;SDS011;51027;42.162;24.754;2024-01-15T11:50:43;42.60;;;23.55;;
64615;SDS011;51027;42.162;24.754;2024-01-15T11:55:47;49.90;;;24.50;;
64615;SDS011;51027;42.162;24.754;2024-01-15T11:58:16;48.05;;;25.48;;
64615;SDS011;51027;42.162;24.754;2024-01-15T12:00:45;46.33;;;24.73;;
64615;SDS011;51027;42.162;24.754;2024-01-15T12:03:12;46.83;;;24.52;;
64615;SDS011;51027;42.162;24.754;2024-01-15T12:05:38;47.13;;;25.05;;
64615;SDS011;51027;42.162;24.754;2024-01-15T12:08:04;41.03;;;22.98;;
64615;SDS011;51027;42.162;24.754;2024-01-15T12:10:37;43.85;;;24.10;;
64615;SDS011;51027;42.162;24.754;2024-01-15T12:13:11;46.97;;;25.08;;
64615;SDS011;51027;42.162;24.754;2024-01-15T12:15:38;44.25;;;25.45;;
64615;SDS011;51027;42.162;24.754;2024-01-15T12:18:07;47.65;;;25.77;;
64615;SDS011;51027;42.162;24.754;2024-01-15T12:20:34;46.85;;;25.80;;
64615;SDS011;51027;42.162;24.754;2024-01-15T12:23:00;53.10;;;26.88;;
64615;SDS011;51027;42.162;24.754;2024-01-15T12:25:28;45.22;;;28.42;;
64615;SDS011;51027;42.162;24.754;2024-01-15T12:27:55;50.88;;;28.13;;
64615;SDS011;51027;42.162;24.754;2024-01-15T12:30:21;50.35;;;27.83;;
64615;SDS011;51027;42.162;24.754;2024-01-15T12:32:47;51.67;;;30.30;;
64615;SDS011;51027;42.162;24.754;2024-01-15T12:35:13;53.33;;;28.42;;
64615;SDS011;51027;42.162;24.754;2024-01-15T12:37:39;57.88;;;31.80;;
64615;SDS011;51027;42.162;24.754;2024-01-15T12:40:06;52.05;;;27.25;;
64615;SDS011;51027;42.162;24.754;2024-01-15T12:42:33;70.75;;;39.90;;
64615;SDS011;51027;42.162;24.754;2024-01-15T12:45:02;54.30;;;29.23;;
64615;SDS011;51027;42.162;24.754;2024-01-15T12:47:30;52.42;;;31.25;;
64615;SDS011;51027;42.162;24.754;2024-01-15T12:49:57;61.28;;;30.90;;
64615;SDS011;51027;42.162;24.754;2024-01-15T12:52:26;57.67;;;36.30;;
64615;SDS011;51027;42.162;24.754;2024-01-15T12:54:52;66.47;;;34.45;;
64615;SDS011;51027;42.162;24.754;2024-01-15T12:57:18;63.30;;;35.17;;
64615;SDS011;51027;42.162;24.754;2024-01-15T12:59:44;66.80;;;35.13;;
64615;SDS011;51027;42.162;24.754;2024-01-15T13:02:10;52.72;;;27.30;;
64615;SDS011;51027;42.162;24.754;2024-01-15T13:04:36;54.60;;;28.00;;
64615;SDS011;51027;42.162;24.754;2024-01-15T13:07:02;51.45;;;26.40;;
64615;SDS011;51027;42.162;24.754;2024-01-15T13:09:27;48.47;;;25.75;;
64615;SDS011;51027;42.162;24.754;2024-01-15T13:11:54;54.15;;;26.63;;
64615;SDS011;51027;42.162;24.754;2024-01-15T13:14:20;48.83;;;25.35;;
64615;SDS011;51027;42.162;24.754;2024-01-15T13:16:46;51.15;;;25.65;;
64615;SDS011;51027;42.162;24.754;2024-01-15T13:19:12;52.55;;;27.77;;
64615;SDS011;51027;42.162;24.754;2024-01-15T13:21:38;48.55;;;26.23;;
64615;SDS011;51027;42.162;24.754;2024-01-15T13:24:07;51.42;;;28.40;;
64615;SDS011;51027;42.162;24.754;2024-01-15T13:26:34;52.90;;;27.13;;
64615;SDS011;51027;42.162;24.754;2024-01-15T13:29:00;50.70;;;25.80;;
64615;SDS011;51027;42.162;24.754;2024-01-15T13:31:29;49.08;;;25.25;;
64615;SDS011;51027;42.162;24.754;2024-01-15T13:33:55;50.00;;;23.95;;
64615;SDS011;51027;42.162;24.754;2024-01-15T13:36:21;47.67;;;24.98;;
64615;SDS011;51027;42.162;24.754;2024-01-15T13:38:48;51.17;;;26.85;;
64615;SDS011;51027;42.162;24.754;2024-01-15T13:41:14;53.58;;;26.83;;
64615;SDS011;51027;42.162;24.754;2024-01-15T13:43:40;49.15;;;27.05;;
64615;SDS011;51027;42.162;24.754;2024-01-15T13:46:06;51.53;;;26.55;;
64615;SDS011;51027;42.162;24.754;2024-01-15T13:48:31;46.83;;;25.17;;
64615;SDS011;51027;42.162;24.754;2024-01-15T13:50:57;43.65;;;25.15;;
64615;SDS011;51027;42.162;24.754;2024-01-15T13:53:24;50.08;;;27.23;;
64615;SDS011;51027;42.162;24.754;2024-01-15T13:55:50;60.55;;;28.63;;
64615;SDS011;51027;42.162;24.754;2024-01-15T13:58:15;54.88;;;29.15;;
64615;SDS011;51027;42.162;24.754;2024-01-15T14:00:43;52.20;;;25.30;;
64615;SDS011;51027;42.162;24.754;2024-01-15T14:03:09;50.45;;;25.67;;
64615;SDS011;51027;42.162;24.754;2024-01-15T14:05:34;53.72;;;23.83;;
64615;SDS011;51027;42.162;24.754;2024-01-15T14:08:00;50.58;;;24.73;;
64615;SDS011;51027;42.162;24.754;2024-01-15T14:10:25;38.75;;;21.40;;
64615;SDS011;51027;42.162;24.754;2024-01-15T14:12:51;46.15;;;24.70;;